createdAt,value
2023-06-16T00:01:16.730Z,95927.28
2023-06-16T00:03:45.102Z,95924.56
2023-06-16T00:06:15.234Z,95927.81
2023-06-16T00:08:45.851Z,95922.41
2023-06-16T00:11:17.039Z,95934.97
2023-06-16T00:13:45.123Z,95930.59
2023-06-16T00:16:12.016Z,95920.69
2023-06-16T00:18:44.647Z,95919.78
2023-06-16T00:21:14.327Z,95926.00
2023-06-16T00:23:42.205Z,95928.22
2023-06-16T00:26:08.852Z,95923.28
2023-06-16T00:28:35.448Z,95927.91
2023-06-16T00:31:01.970Z,95928.59
2023-06-16T00:33:28.506Z,95928.03
2023-06-16T00:35:55.282Z,95917.69
2023-06-16T00:38:21.811Z,95915.97
2023-06-16T00:40:48.288Z,95921.03
2023-06-16T00:43:14.838Z,95921.84
2023-06-16T00:45:45.598Z,95923.78
2023-06-16T00:48:12.404Z,95922.41
2023-06-16T00:50:40.293Z,95918.09
2023-06-16T00:53:11.178Z,95914.63
2023-06-16T00:55:37.992Z,95920.53
2023-06-16T00:58:05.446Z,95912.00
2023-06-16T01:00:37.085Z,95921.25
2023-06-16T01:03:09.997Z,95913.09
2023-06-16T01:05:43.057Z,95913.44
2023-06-16T01:08:21.725Z,95916.19
2023-06-16T01:10:48.148Z,95923.91
2023-06-16T01:13:25.706Z,95916.66
2023-06-16T01:15:52.870Z,95917.22
2023-06-16T01:18:24.472Z,95908.56
2023-06-16T01:21:44.340Z,95916.63
2023-06-16T01:24:18.235Z,95920.28
2023-06-16T01:26:51.247Z,95922.13
2023-06-16T01:29:18.980Z,95917.75
2023-06-16T01:31:47.347Z,95909.13
2023-06-16T01:34:16.326Z,95912.34
2023-06-16T01:36:44.158Z,95921.09
2023-06-16T01:39:11.431Z,95910.53
2023-06-16T01:41:39.826Z,95914.91
2023-06-16T01:44:07.581Z,95905.81
2023-06-16T01:46:35.015Z,95915.59
2023-06-16T01:49:02.835Z,95915.94
2023-06-16T01:51:29.659Z,95907.06
2023-06-16T01:53:57.452Z,95896.25
2023-06-16T01:56:23.984Z,95905.56
2023-06-16T01:58:51.197Z,95906.00
2023-06-16T02:01:24.532Z,95905.72
2023-06-16T02:04:00.595Z,95907.91
2023-06-16T02:07:10.284Z,95903.63
2023-06-16T02:09:39.513Z,95909.69
2023-06-16T02:12:08.166Z,95913.81
2023-06-16T02:14:36.182Z,95908.63
2023-06-16T02:17:07.009Z,95908.16
2023-06-16T02:19:33.719Z,95907.44
2023-06-16T02:22:00.575Z,95906.50
2023-06-16T02:24:28.119Z,95904.69
2023-06-16T02:26:54.710Z,95900.56
2023-06-16T02:29:21.763Z,95902.66
2023-06-16T02:31:51.409Z,95907.38
2023-06-16T02:34:18.693Z,95896.22
2023-06-16T02:36:45.422Z,95901.25
2023-06-16T02:39:12.109Z,95901.25
2023-06-16T02:41:38.719Z,95892.78
2023-06-16T02:44:05.659Z,95894.84
2023-06-16T02:46:32.218Z,95891.63
2023-06-16T02:48:58.857Z,95895.75
2023-06-16T02:51:25.941Z,95893.31
2023-06-16T02:53:52.954Z,95895.47
2023-06-16T02:56:22.460Z,95893.75
2023-06-16T02:59:20.485Z,95893.63
2023-06-16T03:02:26.767Z,95898.53
2023-06-16T03:04:54.268Z,95894.09
2023-06-16T03:07:20.926Z,95896.03
2023-06-16T03:09:47.832Z,95884.41
2023-06-16T03:12:14.721Z,95899.34
2023-06-16T03:14:42.164Z,95897.84
2023-06-16T03:17:09.007Z,95901.75
2023-06-16T03:19:35.579Z,95898.41
2023-06-16T03:22:02.801Z,95897.47
2023-06-16T03:24:34.924Z,95895.84
2023-06-16T03:27:04.596Z,95895.69
2023-06-16T03:29:31.551Z,95900.59
2023-06-16T03:31:58.118Z,95899.25
2023-06-16T03:34:25.429Z,95900.56
2023-06-16T03:36:52.478Z,95895.78
2023-06-16T03:39:19.834Z,95904.16
2023-06-16T03:41:47.738Z,95897.84
2023-06-16T03:44:20.042Z,95903.72
2023-06-16T03:46:51.859Z,95903.03
2023-06-16T03:49:18.835Z,95901.56
2023-06-16T03:51:46.323Z,95905.31
2023-06-16T03:54:13.096Z,95898.88
2023-06-16T03:56:40.413Z,95906.88
2023-06-16T03:59:07.075Z,95908.66
2023-06-16T04:01:33.952Z,95909.34
2023-06-16T04:04:00.900Z,95906.13
2023-06-16T04:06:27.438Z,95908.19
2023-06-16T04:08:54.042Z,95914.19
2023-06-16T04:11:21.295Z,95913.69
2023-06-16T04:13:48.779Z,95919.97
2023-06-16T04:16:15.737Z,95908.53
2023-06-16T04:18:42.493Z,95922.13
2023-06-16T04:21:11.253Z,95922.25
2023-06-16T04:23:37.817Z,95918.25
2023-06-16T04:26:04.452Z,95922.88
2023-06-16T04:28:31.253Z,95914.78
2023-06-16T04:30:58.085Z,95917.91
2023-06-16T04:33:25.621Z,95924.28
2023-06-16T04:35:52.562Z,95927.28
2023-06-16T04:38:21.266Z,95923.28
2023-06-16T04:40:48.288Z,95919.72
2023-06-16T04:43:15.772Z,95920.06
2023-06-16T04:45:42.881Z,95923.69
2023-06-16T04:48:10.205Z,95929.66
2023-06-16T04:50:37.672Z,95925.75
2023-06-16T04:53:06.827Z,95924.94
2023-06-16T04:55:33.607Z,95921.00
2023-06-16T04:58:00.542Z,95919.47
2023-06-16T05:00:29.378Z,95912.41
2023-06-16T05:02:56.253Z,95922.75
2023-06-16T05:05:23.424Z,95919.09
2023-06-16T05:07:50.080Z,95921.84
2023-06-16T05:10:17.090Z,95918.84
2023-06-16T05:12:44.984Z,95922.16
2023-06-16T05:15:16.143Z,95930.38
2023-06-16T05:17:43.393Z,95919.19
2023-06-16T05:20:11.093Z,95924.72
2023-06-16T05:22:37.756Z,95918.47
2023-06-16T05:25:09.839Z,95919.06
2023-06-16T05:27:37.175Z,95914.72
2023-06-16T05:30:04.450Z,95919.03
2023-06-16T05:32:31.123Z,95915.31
2023-06-16T05:34:57.895Z,95923.63
2023-06-16T05:37:24.452Z,95927.91
2023-06-16T05:39:51.621Z,95928.53
2023-06-16T05:42:18.281Z,95920.63
2023-06-16T05:44:45.872Z,95920.66
2023-06-16T05:47:13.044Z,95922.59
2023-06-16T05:49:39.731Z,95927.81
2023-06-16T05:52:07.414Z,95923.47
2023-06-16T05:54:34.468Z,95925.41
2023-06-16T05:57:01.982Z,95934.72
2023-06-16T05:59:29.511Z,95926.72
2023-06-16T06:01:56.770Z,95921.13
2023-06-16T06:04:34.268Z,95927.53
2023-06-16T06:07:02.188Z,95917.91
2023-06-16T06:09:29.172Z,95927.09
2023-06-16T06:11:55.888Z,95929.41
2023-06-16T06:14:22.829Z,95930.22
2023-06-16T06:16:52.398Z,95928.88
2023-06-16T06:19:20.546Z,95932.63
2023-06-16T06:21:47.307Z,95931.53
2023-06-16T06:24:15.710Z,95938.22
2023-06-16T06:26:44.393Z,95935.44
2023-06-16T06:29:11.550Z,95944.44
2023-06-16T06:31:38.680Z,95941.94
2023-06-16T06:34:05.824Z,95944.59
2023-06-16T06:36:35.724Z,95956.47
2023-06-16T06:39:02.782Z,95951.38
2023-06-16T06:41:29.840Z,95956.94
2023-06-16T06:43:56.600Z,95948.63
2023-06-16T06:46:23.691Z,95959.44
2023-06-16T06:48:50.737Z,95962.59
2023-06-16T06:51:17.870Z,95960.97
2023-06-16T06:53:45.081Z,95957.59
2023-06-16T06:56:12.514Z,95965.13
2023-06-16T06:58:39.206Z,95953.53
2023-06-16T07:01:06.402Z,95964.88
2023-06-16T07:03:33.618Z,95963.94
2023-06-16T07:06:00.985Z,95967.78
2023-06-16T07:08:27.845Z,95966.47
2023-06-16T07:10:54.491Z,95965.16
2023-06-16T07:13:21.109Z,95967.41
2023-06-16T07:15:48.066Z,95959.06
2023-06-16T07:18:14.773Z,95964.69
2023-06-16T07:20:41.793Z,95971.03
2023-06-16T07:23:09.731Z,95965.25
2023-06-16T07:25:37.693Z,95962.81
2023-06-16T07:28:08.983Z,95963.91
2023-06-16T07:30:35.864Z,95968.00
2023-06-16T07:33:02.660Z,95966.28
2023-06-16T07:35:29.483Z,95971.22
2023-06-16T07:38:02.201Z,95971.13
2023-06-16T07:40:28.927Z,95975.91
2023-06-16T07:42:55.763Z,95964.31
2023-06-16T07:45:22.554Z,95980.34
2023-06-16T07:47:49.617Z,95976.41
2023-06-16T07:50:17.171Z,95976.78
2023-06-16T07:52:44.133Z,95982.84
2023-06-16T07:55:13.830Z,95971.13
2023-06-16T07:57:40.805Z,95977.53
2023-06-16T08:00:12.752Z,95981.50
2023-06-16T08:02:41.637Z,95981.13
2023-06-16T08:05:09.643Z,95983.13
2023-06-16T08:07:36.940Z,95973.53
2023-06-16T08:10:05.453Z,95968.72
2023-06-16T08:12:35.131Z,95971.13
2023-06-16T08:15:03.281Z,95965.13
2023-06-16T08:17:29.999Z,95959.53
2023-06-16T08:19:56.957Z,95967.53
2023-06-16T08:22:24.211Z,95965.94
2023-06-16T08:24:51.217Z,95962.34
2023-06-16T08:27:17.923Z,95962.72
2023-06-16T08:29:44.680Z,95966.72
2023-06-16T08:32:11.941Z,95965.16
2023-06-16T08:34:38.530Z,95963.50
2023-06-16T08:37:13.978Z,95966.72
2023-06-16T08:39:44.160Z,95961.13
2023-06-16T08:42:13.978Z,95964.75
2023-06-16T08:44:41.474Z,95962.34
2023-06-16T08:47:09.321Z,95963.50
2023-06-16T08:49:36.375Z,95960.31
2023-06-16T08:52:04.623Z,95963.13
2023-06-16T08:54:48.084Z,95960.75
2023-06-16T08:57:15.670Z,95959.50
2023-06-16T08:59:46.424Z,95961.13
2023-06-16T09:02:13.433Z,95962.69
2023-06-16T09:04:42.661Z,95961.94
2023-06-16T09:07:10.711Z,95954.72
2023-06-16T09:09:38.349Z,95954.72
2023-06-16T09:12:12.358Z,95956.34
2023-06-16T09:14:39.882Z,95959.91
2023-06-16T09:17:08.205Z,95949.84
2023-06-16T09:19:42.372Z,95957.06
2023-06-16T09:22:14.277Z,95954.66
2023-06-16T09:24:42.158Z,95957.13
2023-06-16T09:27:09.503Z,95954.31
2023-06-16T09:29:38.518Z,95955.47
2023-06-16T09:32:10.163Z,95951.84
2023-06-16T09:34:37.332Z,95954.72
2023-06-16T09:37:07.541Z,95947.47
2023-06-16T09:39:35.035Z,95956.31
2023-06-16T09:42:02.415Z,95947.81
2023-06-16T09:44:31.138Z,95950.72
2023-06-16T09:47:01.979Z,95951.91
2023-06-16T09:49:28.877Z,95951.47
2023-06-16T09:51:57.366Z,95947.50
2023-06-16T09:54:27.058Z,95945.09
2023-06-16T09:56:56.659Z,95952.34
2023-06-16T09:59:24.930Z,95959.91
2023-06-16T10:01:55.119Z,95954.72
2023-06-16T10:04:24.003Z,95947.13
2023-06-16T10:06:58.577Z,95949.94
2023-06-16T10:09:29.462Z,95949.91
2023-06-16T10:11:58.236Z,95936.66
2023-06-16T10:14:31.663Z,95940.94
2023-06-16T10:16:59.618Z,95944.06
2023-06-16T10:19:29.648Z,95941.63
2023-06-16T10:21:56.563Z,95949.13
2023-06-16T10:24:24.902Z,95937.69
2023-06-16T10:26:52.177Z,95930.59
2023-06-16T10:29:21.755Z,95930.25
2023-06-16T10:31:50.401Z,95935.78
2023-06-16T10:34:22.846Z,95930.13
2023-06-16T10:36:50.927Z,95936.88
2023-06-16T10:39:17.647Z,95923.31
2023-06-16T10:42:00.733Z,95922.44
2023-06-16T10:44:32.482Z,95921.47
2023-06-16T10:47:14.046Z,95927.75
2023-06-16T10:50:03.841Z,95930.09
2023-06-16T10:52:31.099Z,95923.91
2023-06-16T10:54:58.918Z,95930.09
2023-06-16T10:57:26.816Z,95926.84
2023-06-16T11:00:17.229Z,95919.16
2023-06-16T11:02:52.520Z,95918.13
2023-06-16T11:05:23.988Z,95916.03
2023-06-16T11:08:04.401Z,95924.84
2023-06-16T11:10:31.384Z,95920.31
2023-06-16T11:12:58.399Z,95919.88
2023-06-16T11:15:26.444Z,95914.66
2023-06-16T11:17:53.412Z,95918.19
2023-06-16T11:20:23.080Z,95912.50
2023-06-16T11:22:52.117Z,95901.19
2023-06-16T11:25:18.909Z,95920.34
2023-06-16T11:27:45.843Z,95920.53
2023-06-16T11:30:12.793Z,95921.47
2023-06-16T11:32:41.834Z,95916.78
2023-06-16T11:35:09.006Z,95922.53
2023-06-16T11:37:49.056Z,95917.69
2023-06-16T11:40:29.534Z,95911.69
2023-06-16T11:43:00.840Z,95916.38
2023-06-16T11:45:29.426Z,95900.41
2023-06-16T11:47:57.218Z,95905.41
2023-06-16T11:50:25.889Z,95908.66
2023-06-16T11:52:53.782Z,95899.97
2023-06-16T11:55:21.380Z,95903.25
2023-06-16T11:57:48.221Z,95898.13
2023-06-16T12:00:16.995Z,95906.25
2023-06-16T12:02:45.600Z,95902.16
2023-06-16T12:05:21.007Z,95898.28
2023-06-16T12:07:47.522Z,95893.75
2023-06-16T12:10:16.024Z,95895.06
2023-06-16T12:12:43.783Z,95887.59
2023-06-16T12:15:14.577Z,95893.50
2023-06-16T12:17:41.209Z,95889.47
2023-06-16T12:20:11.342Z,95893.31
2023-06-16T12:22:39.799Z,95890.28
2023-06-16T12:25:15.405Z,95897.25
2023-06-16T12:27:50.456Z,95890.63
2023-06-16T12:30:17.448Z,95895.78
2023-06-16T12:32:46.341Z,95890.88
2023-06-16T12:35:14.083Z,95885.47
2023-06-16T12:37:42.775Z,95888.72
2023-06-16T12:40:13.081Z,95885.53
2023-06-16T12:42:41.994Z,95880.34
2023-06-16T12:45:09.162Z,95884.66
2023-06-16T12:47:37.346Z,95874.59
2023-06-16T12:50:05.786Z,95873.78
2023-06-16T12:52:32.686Z,95877.47
2023-06-16T12:55:01.032Z,95870.78
2023-06-16T12:57:28.688Z,95886.84
2023-06-16T12:59:56.020Z,95876.34
2023-06-16T13:02:26.138Z,95879.69
2023-06-16T13:04:52.942Z,95876.94
2023-06-16T13:07:19.726Z,95864.28
2023-06-16T13:09:46.283Z,95874.78
2023-06-16T13:12:13.646Z,95871.00
2023-06-16T13:14:40.599Z,95875.47
2023-06-16T13:17:07.440Z,95876.09
2023-06-16T13:19:34.229Z,95869.00
2023-06-16T13:22:03.231Z,95870.69
2023-06-16T13:24:31.081Z,95865.06
2023-06-16T13:26:58.211Z,95865.22
2023-06-16T13:29:25.471Z,95858.75
2023-06-16T13:31:52.191Z,95863.78
2023-06-16T13:34:18.700Z,95864.59
2023-06-16T13:36:45.291Z,95869.09
2023-06-16T13:39:12.135Z,95860.88
2023-06-16T13:41:38.719Z,95866.72
2023-06-16T13:44:05.578Z,95870.22
2023-06-16T13:46:32.196Z,95869.47
2023-06-16T13:48:58.922Z,95862.97
2023-06-16T13:51:25.638Z,95849.31
2023-06-16T13:53:52.579Z,95852.56
2023-06-16T13:56:19.476Z,95855.31
2023-06-16T13:58:46.694Z,95853.41
2023-06-16T14:01:13.404Z,95844.69
2023-06-16T14:03:40.352Z,95853.91
2023-06-16T14:06:07.722Z,95845.56
2023-06-16T14:08:34.281Z,95834.78
2023-06-16T14:11:02.014Z,95840.56
2023-06-16T14:13:28.524Z,95835.16
2023-06-16T14:15:55.137Z,95845.28
2023-06-16T14:18:22.467Z,95830.94
2023-06-16T14:20:49.471Z,95824.41
2023-06-16T14:23:17.897Z,95828.69
2023-06-16T14:25:46.530Z,95827.19
2023-06-16T14:28:15.678Z,95818.13
2023-06-16T14:30:42.393Z,95821.63
2023-06-16T14:33:11.198Z,95816.00
2023-06-16T14:35:38.527Z,95819.41
2023-06-16T14:38:06.726Z,95816.69
2023-06-16T14:40:34.107Z,95802.25
2023-06-16T14:43:00.924Z,95809.31
2023-06-16T14:45:27.451Z,95816.50
2023-06-16T14:47:54.102Z,95809.75
2023-06-16T14:50:23.870Z,95814.97
2023-06-16T14:52:51.062Z,95817.38
2023-06-16T14:55:17.630Z,95806.69
2023-06-16T14:57:44.381Z,95816.88
2023-06-16T15:00:11.501Z,95807.28
2023-06-16T15:02:38.275Z,95812.94
2023-06-16T15:05:07.209Z,95796.13
2023-06-16T15:07:33.834Z,95806.28
2023-06-16T15:10:00.374Z,95800.38
2023-06-16T15:12:26.921Z,95796.72
2023-06-16T15:14:53.463Z,95794.44
2023-06-16T15:17:20.518Z,95793.91
2023-06-16T15:19:47.019Z,95798.44
2023-06-16T15:22:13.700Z,95794.50
2023-06-16T15:24:40.450Z,95788.47
2023-06-16T15:27:08.421Z,95789.59
2023-06-16T15:29:35.113Z,95789.00
2023-06-16T15:32:01.684Z,95794.53
2023-06-16T15:34:28.291Z,95786.00
2023-06-16T15:36:54.931Z,95788.25
2023-06-16T15:39:24.478Z,95791.50
2023-06-16T15:41:51.307Z,95781.00
2023-06-16T15:44:17.958Z,95783.09
2023-06-16T15:46:46.360Z,95789.09
2023-06-16T15:49:13.058Z,95787.72
2023-06-16T15:51:40.621Z,95789.34
2023-06-16T15:54:09.225Z,95788.97
2023-06-16T15:56:36.099Z,95782.38
2023-06-16T15:59:02.743Z,95767.56
2023-06-16T16:01:29.596Z,95781.78
2023-06-16T16:03:56.832Z,95781.59
2023-06-16T16:06:24.098Z,95779.84
2023-06-16T16:08:51.292Z,95774.16
2023-06-16T16:11:18.077Z,95772.13
2023-06-16T16:13:44.798Z,95773.59
2023-06-16T16:16:11.637Z,95775.31
2023-06-16T16:18:39.142Z,95775.03
2023-06-16T16:21:06.091Z,95774.88
2023-06-16T16:23:33.032Z,95772.25
2023-06-16T16:26:01.066Z,95763.03
2023-06-16T16:28:28.044Z,95760.56
2023-06-16T16:30:57.028Z,95757.25
2023-06-16T16:33:23.956Z,95761.34
2023-06-16T16:35:50.869Z,95765.66
2023-06-16T16:38:17.518Z,95764.81
2023-06-16T16:40:52.297Z,95758.31
2023-06-16T16:43:18.884Z,95763.50
2023-06-16T16:45:45.504Z,95764.09
2023-06-16T16:48:12.084Z,95767.06
2023-06-16T16:50:38.658Z,95768.22
2023-06-16T16:53:06.502Z,95759.56
2023-06-16T16:55:36.738Z,95764.03
2023-06-16T16:58:04.716Z,95769.47
2023-06-16T17:00:31.724Z,95766.13
2023-06-16T17:02:58.344Z,95754.47
2023-06-16T17:05:25.074Z,95773.44
2023-06-16T17:07:51.739Z,95763.94
2023-06-16T17:10:18.609Z,95763.00
2023-06-16T17:12:45.474Z,95763.16
2023-06-16T17:15:12.208Z,95771.81
2023-06-16T17:17:39.005Z,95771.59
2023-06-16T17:20:06.365Z,95768.41
2023-06-16T17:22:32.905Z,95777.44
2023-06-16T17:24:59.439Z,95777.66
2023-06-16T17:27:25.944Z,95779.56
2023-06-16T17:29:52.693Z,95778.06
2023-06-16T17:32:19.323Z,95786.72
2023-06-16T17:34:45.863Z,95781.16
2023-06-16T17:37:12.415Z,95780.81
2023-06-16T17:39:39.123Z,95783.28
2023-06-16T17:42:05.733Z,95781.44
2023-06-16T17:44:32.204Z,95778.69
2023-06-16T17:47:01.127Z,95780.00
2023-06-16T17:49:28.130Z,95781.25
2023-06-16T17:52:02.036Z,95779.19
2023-06-16T17:54:28.824Z,95778.66
2023-06-16T17:56:55.534Z,95785.19
2023-06-16T17:59:23.923Z,95782.13
2023-06-16T18:01:50.532Z,95779.41
2023-06-16T18:04:18.521Z,95781.50
2023-06-16T18:06:45.164Z,95782.75
2023-06-16T18:09:11.709Z,95786.44
2023-06-16T18:11:38.911Z,95789.72
2023-06-16T18:14:05.810Z,95784.97
2023-06-16T18:16:32.622Z,95793.84
2023-06-16T18:19:00.010Z,95784.66
2023-06-16T18:21:27.993Z,95783.50
2023-06-16T18:23:54.885Z,95789.09
2023-06-16T18:26:21.567Z,95791.53
2023-06-16T18:28:48.610Z,95788.75
2023-06-16T18:31:15.137Z,95791.19
2023-06-16T18:33:41.712Z,95794.41
2023-06-16T18:36:08.276Z,95791.59
2023-06-16T18:38:34.886Z,95794.81
2023-06-16T18:41:02.074Z,95792.03
2023-06-16T18:43:28.917Z,95791.22
2023-06-16T18:45:55.868Z,95790.81
2023-06-16T18:48:22.726Z,95786.03
2023-06-16T18:50:49.330Z,95790.81
2023-06-16T18:53:17.073Z,95784.81
2023-06-16T18:55:43.845Z,95787.97
2023-06-16T18:58:11.125Z,95793.16
2023-06-16T19:00:37.907Z,95796.31
2023-06-16T19:03:04.538Z,95792.72
2023-06-16T19:05:31.396Z,95795.84
2023-06-16T19:07:58.172Z,95794.59
2023-06-16T19:10:24.962Z,95804.47
2023-06-16T19:12:53.761Z,95789.69
2023-06-16T19:15:21.595Z,95790.84
2023-06-16T19:17:48.777Z,95792.38
2023-06-16T19:20:16.282Z,95789.94
2023-06-16T19:22:43.633Z,95786.66
2023-06-16T19:25:12.588Z,95793.78
2023-06-16T19:27:39.655Z,95799.63
2023-06-16T19:30:09.805Z,95798.38
2023-06-16T19:32:37.059Z,95795.91
2023-06-16T19:35:05.065Z,95810.63
2023-06-16T19:37:32.149Z,95804.22
2023-06-16T19:39:59.999Z,95812.06
2023-06-16T19:42:27.159Z,95809.19
2023-06-16T19:44:55.376Z,95820.63
2023-06-16T19:47:23.396Z,95813.25
2023-06-16T19:49:50.889Z,95813.06
2023-06-16T19:52:17.643Z,95823.19
2023-06-16T19:54:44.342Z,95825.78
2023-06-16T19:57:12.237Z,95824.28
2023-06-16T19:59:39.757Z,95829.19
2023-06-16T20:02:07.753Z,95834.19
2023-06-16T20:04:35.467Z,95842.78
2023-06-16T20:07:03.505Z,95826.06
2023-06-16T20:09:30.315Z,95834.72
2023-06-16T20:11:56.987Z,95838.50
2023-06-16T20:14:23.845Z,95842.34
2023-06-16T20:16:50.754Z,95843.44
2023-06-16T20:19:17.596Z,95845.72
2023-06-16T20:21:44.425Z,95850.25
2023-06-16T20:24:12.425Z,95840.22
2023-06-16T20:26:39.951Z,95846.75
2023-06-16T20:29:07.125Z,95845.25
2023-06-16T20:31:34.790Z,95846.97
2023-06-16T20:34:02.073Z,95849.63
2023-06-16T20:36:30.623Z,95852.41
2023-06-16T20:39:01.585Z,95846.31
2023-06-16T20:41:29.781Z,95845.09
2023-06-16T20:43:56.865Z,95845.91
2023-06-16T20:46:24.616Z,95846.66
2023-06-16T20:48:53.260Z,95844.13
2023-06-16T20:51:19.975Z,95844.34
2023-06-16T20:53:47.416Z,95838.94
2023-06-16T20:56:24.128Z,95846.66
2023-06-16T20:59:12.159Z,95844.88
2023-06-16T21:01:45.064Z,95836.78
2023-06-16T21:04:12.889Z,95839.84
2023-06-16T21:06:41.389Z,95842.66
2023-06-16T21:09:10.638Z,95850.19
2023-06-16T21:11:37.677Z,95840.44
2023-06-16T21:14:04.583Z,95849.06
2023-06-16T21:16:31.819Z,95843.66
2023-06-16T21:18:58.975Z,95848.47
2023-06-16T21:21:25.596Z,95846.13
2023-06-16T21:23:53.816Z,95847.91
2023-06-16T21:26:21.798Z,95846.34
2023-06-16T21:28:52.488Z,95847.00
2023-06-16T21:31:19.244Z,95845.84
2023-06-16T21:33:47.183Z,95841.53
2023-06-16T21:36:15.433Z,95843.16
2023-06-16T21:38:42.826Z,95838.88
2023-06-16T21:41:11.113Z,95843.50
2023-06-16T21:43:41.431Z,95847.31
2023-06-16T21:46:08.200Z,95850.69
2023-06-16T21:48:34.836Z,95844.25
2023-06-16T21:51:01.551Z,95842.66
2023-06-16T21:53:37.394Z,95847.34
2023-06-16T21:56:04.273Z,95851.28
2023-06-16T21:58:30.929Z,95852.09
2023-06-16T22:00:57.598Z,95855.22
2023-06-16T22:03:24.606Z,95850.38
2023-06-16T22:05:51.254Z,95855.00
2023-06-16T22:08:18.034Z,95847.34
2023-06-16T22:10:44.606Z,95852.38
2023-06-16T22:13:12.889Z,95851.50
2023-06-16T22:15:44.363Z,95845.97
2023-06-16T22:18:13.051Z,95849.81
2023-06-16T22:20:40.593Z,95847.78
2023-06-16T22:23:08.368Z,95845.75
2023-06-16T22:25:35.304Z,95840.84
2023-06-16T22:28:02.166Z,95841.13
2023-06-16T22:30:30.752Z,95841.34
2023-06-16T22:32:58.367Z,95844.34
2023-06-16T22:35:25.889Z,95836.22
2023-06-16T22:37:52.684Z,95836.94
2023-06-16T22:40:19.543Z,95836.81
2023-06-16T22:42:46.286Z,95838.34
2023-06-16T22:45:13.306Z,95831.72
2023-06-16T22:47:42.757Z,95831.13
2023-06-16T22:50:10.454Z,95829.44
2023-06-16T22:52:40.873Z,95832.91
2023-06-16T22:55:09.184Z,95842.75
2023-06-16T22:57:35.986Z,95830.44
2023-06-16T23:00:02.712Z,95832.16
2023-06-16T23:02:29.319Z,95829.66
2023-06-16T23:04:55.999Z,95822.34
2023-06-16T23:07:22.541Z,95836.66
2023-06-16T23:09:49.054Z,95834.94
2023-06-16T23:12:15.633Z,95828.59
2023-06-16T23:14:42.164Z,95835.13
2023-06-16T23:17:08.757Z,95825.28
2023-06-16T23:19:35.574Z,95834.22
2023-06-16T23:22:04.008Z,95825.16
2023-06-16T23:24:30.815Z,95826.69
2023-06-16T23:26:59.429Z,95824.53
2023-06-16T23:29:27.475Z,95811.03
2023-06-16T23:31:54.691Z,95813.38
2023-06-16T23:34:22.372Z,95804.31
2023-06-16T23:36:49.046Z,95805.66
2023-06-16T23:39:15.791Z,95806.53
2023-06-16T23:41:42.399Z,95802.06
2023-06-16T23:44:09.648Z,95801.63
2023-06-16T23:46:36.471Z,95808.34
2023-06-16T23:49:03.257Z,95799.06
2023-06-16T23:51:29.802Z,95807.22
2023-06-16T23:53:56.318Z,95802.56
2023-06-16T23:56:22.902Z,95809.72
2023-06-16T23:58:49.481Z,95801.31
